(°C)
(°C)
-0°
-1°
-2°
-3°
-4°
ZO
ZO
ZO
OZO
OZO
OZO
OZO
(km/u)
4-9
4-10
4-11
4-11
4-12
4-12
5-12
(mm)
0
0
0
0
0
0
0
(%)
0
0
0
0
0
0
0

Zonverhoging

/ -47.8°
sun-icon
UV 2
07:41
18:16
Wassende maan (167°)
18:09
05:50

METAR voor 51.02°N 71.47°O (UACC)

Tijd Voorwaarden Temperatuur/
Dauwpunt
Wind Zicht Weer Wolken Luchtdruk Wijzigen Ruw
MVFR 0°C / -4°C 70º 4kt 5000m Mist Vertical Visibility of 0ft. 1024 No Significant change. Runway 22: Clear and dry, , friction coefficient 0.70. UACC 181730Z 07002MPS 5000 BR NSC 00/M04 Q1024 R22/0///70 NOSIG RMK QFE736/0982
VFR 1°C / -3°C 80º 4kt >10km - Clouds and Visibility OK 1024 No Significant change. Runway 22: Clear and dry, , friction coefficient 0.70. UACC 181700Z 08002MPS CAVOK 01/M03 Q1024 R22/0///70 NOSIG RMK QFE736/0982
VFR 1°C / -3°C variable 2kt >10km - Clouds and Visibility OK 1024 No Significant change. Runway 22: Clear and dry, , friction coefficient 0.70. UACC 181630Z VRB01MPS CAVOK 01/M03 Q1024 R22/0///70 NOSIG RMK QFE736/0982
VFR 2°C / -3°C variable 0kt >10km - Clouds and Visibility OK 1024 No Significant change. Runway 22: Clear and dry, , friction coefficient 0.70. UACC 181600Z 00000MPS CAVOK 02/M03 Q1024 R22/0///70 NOSIG RMK QFE736/0982
VFR 5°C / 1°C variable 2kt >10km - Clouds and Visibility OK 1024 No Significant change. Runway 22: Clear and dry, , friction coefficient 0.70. UACC 181530Z VRB01MPS CAVOK 05/01 Q1024 R22/0///70 NOSIG RMK QFE736/0982
VFR 6°C / -1°C 190º variable 160º to 220º 4kt >10km - Clouds and Visibility OK 1024 No Significant change. Runway 22: Clear and dry, , friction coefficient 0.70. UACC 181500Z 19002MPS 160V220 CAVOK 06/M01 Q1024 R22/0///70 NOSIG RMK QFE736/0982
VFR 6°C / -1°C 170º 6kt >10km - Clouds and Visibility OK 1024 No Significant change. Runway 22: Clear and dry, , friction coefficient 0.70. UACC 181430Z 17003MPS CAVOK 06/M01 Q1024 R22/0///70 NOSIG RMK QFE736/0982
VFR 6°C / 0°C 140º 6kt >10km - Clouds and Visibility OK 1024 No Significant change. Runway 22: Clear and dry, , friction coefficient 0.70. UACC 181400Z 14003MPS CAVOK 06/M00 Q1024 R22/0///70 NOSIG RMK QFE736/0982
VFR 9°C / -1°C 140º variable 110º to 180º 4kt >10km - Clouds and Visibility OK 1024 No Significant change. Runway 22: Clear and dry, , friction coefficient 0.70. UACC 181330Z 14002MPS 110V180 CAVOK 09/M01 Q1024 R22/0///70 NOSIG RMK QFE736/0982
VFR 8°C / -1°C 160º variable 140º to 200º 4kt >10km - Clouds and Visibility OK 1024 No Significant change. Runway 22: Clear and dry, , friction coefficient 0.70. UACC 181300Z 16002MPS 140V200 CAVOK 08/M01 Q1024 R22/0///70 NOSIG RMK QFE736/0982
VFR 11°C / -1°C variable 0kt >10km - Clouds and Visibility OK 1024 No Significant change. Runway 22: Clear and dry, , friction coefficient 0.70. UACC 181230Z 00000MPS CAVOK 11/M01 Q1024 R22/0///70 NOSIG RMK QFE736/0982
VFR 12°C / -2°C 160º variable 120º to 190º 4kt >10km - Clouds and Visibility OK 1024 No Significant change. Runway 22: Clear and dry, , friction coefficient 0.70. UACC 181200Z 16002MPS 120V190 CAVOK 12/M02 Q1024 R22/0///70 NOSIG RMK QFE736/0982
VFR 13°C / -1°C 150º 4kt >10km - Clouds and Visibility OK 1024 No Significant change. Runway 22: Clear and dry, , friction coefficient 0.70. UACC 181130Z 15002MPS CAVOK 13/M01 Q1024 R22/0///70 NOSIG RMK QFE736/0982
VFR 14°C / -1°C 150º 4kt >10km - Clouds and Visibility OK 1024 No Significant change. Runway 22: Clear and dry, , friction coefficient 0.70. UACC 181100Z 15002MPS CAVOK 14/M01 Q1024 R22/0///70 NOSIG RMK QFE736/0982
VFR 15°C / -2°C variable 2kt >10km - Clouds and Visibility OK 1024 No Significant change. Runway 22: Clear and dry, , friction coefficient 0.70. UACC 181030Z VRB01MPS CAVOK 15/M02 Q1024 R22/0///70 NOSIG RMK QFE736/0982
VFR 16°C / -2°C 280º variable 220º to 340º 4kt >10km - Clouds and Visibility OK 1024 No Significant change. Runway 22: Clear and dry, , friction coefficient 0.70. UACC 181000Z 28002MPS 220V340 CAVOK 16/M02 Q1024 R22/0///70 NOSIG RMK QFE736/0982
VFR 16°C / -2°C 220º variable 170º to 340º 4kt >10km - Clouds and Visibility OK 1024 No Significant change. Runway 22: Clear and dry, , friction coefficient 0.70. UACC 180930Z 22002MPS 170V340 CAVOK 16/M02 Q1024 R22/0///70 NOSIG RMK QFE736/0982
VFR 16°C / -1°C 260º variable 220º to 290º 4kt >10km - Clouds and Visibility OK 1024 No Significant change. Runway 22: Clear and dry, , friction coefficient 0.70. UACC 180900Z 26002MPS 220V290 CAVOK 16/M01 Q1024 R22/0///70 NOSIG RMK QFE737/0982
VFR 15°C / -1°C 280º 6kt >10km - Clouds and Visibility OK 1024 No Significant change. Runway 04: Clear and dry, , friction coefficient 0.70. UACC 180830Z 28003MPS CAVOK 15/M01 Q1024 R04/0///70 NOSIG RMK QFE737/0982
VFR 15°C / -1°C 190º 4kt >10km - Clouds and Visibility OK 1025 No Significant change. Runway 22: Clear and dry, , friction coefficient 0.70. UACC 180800Z 19002MPS CAVOK 15/M01 Q1025 R22/0///70 NOSIG RMK QFE737/0983
VFR 15°C / -1°C 220º variable 150º to 280º 4kt >10km - Clouds and Visibility OK 1025 No Significant change. Runway 22: Clear and dry, , friction coefficient 0.70. UACC 180730Z 22002MPS 150V280 CAVOK 15/M01 Q1025 R22/0///70 NOSIG RMK QFE737/0983
VFR 14°C / 0°C 200º variable 170º to 250º 6kt >10km - Clouds and Visibility OK 1025 No Significant change. Runway 22: Clear and dry, , friction coefficient 0.70. UACC 180700Z 20003MPS 170V250 CAVOK 14/M00 Q1025 R22/0///70 NOSIG RMK QFE737/0983
VFR 13°C / 0°C 230º variable 200º to 270º 6kt >10km - Clouds and Visibility OK 1025 No Significant change. Runway 22: Clear and dry, , friction coefficient 0.70. UACC 180630Z 23003MPS 200V270 CAVOK 13/M00 Q1025 R22/0///70 NOSIG RMK QFE737/0983
VFR 12°C / -1°C 230º variable 190º to 270º 6kt >10km - Clouds and Visibility OK 1026 No Significant change. Runway 22: Clear and dry, , friction coefficient 0.70. UACC 180600Z 23003MPS 190V270 CAVOK 12/M01 Q1026 R22/0///70 NOSIG RMK QFE738/0984

MVFR

0°C / -4°C

[Meer]
Wind 70º 4kt
Zicht 5000m
Weer Mist
Wolken Vertical Visibility of 0ft.
Luchtdruk 1024
Wijzigen No Significant change. Runway 22: Clear and dry, , friction coefficient 0.70.
Ruw UACC 181730Z 07002MPS 5000 BR NSC 00/M04 Q1024 R22/0///70 NOSIG RMK QFE736/0982

VFR

1°C / -3°C

[Meer]
Wind 80º 4kt
Zicht >10km
Weer -
Wolken Clouds and Visibility OK
Luchtdruk 1024
Wijzigen No Significant change. Runway 22: Clear and dry, , friction coefficient 0.70.
Ruw UACC 181700Z 08002MPS CAVOK 01/M03 Q1024 R22/0///70 NOSIG RMK QFE736/0982

VFR

1°C / -3°C

[Meer]
Wind variable 2kt
Zicht >10km
Weer -
Wolken Clouds and Visibility OK
Luchtdruk 1024
Wijzigen No Significant change. Runway 22: Clear and dry, , friction coefficient 0.70.
Ruw UACC 181630Z VRB01MPS CAVOK 01/M03 Q1024 R22/0///70 NOSIG RMK QFE736/0982

VFR

2°C / -3°C

[Meer]
Wind variable 0kt
Zicht >10km
Weer -
Wolken Clouds and Visibility OK
Luchtdruk 1024
Wijzigen No Significant change. Runway 22: Clear and dry, , friction coefficient 0.70.
Ruw UACC 181600Z 00000MPS CAVOK 02/M03 Q1024 R22/0///70 NOSIG RMK QFE736/0982

VFR

5°C / 1°C

[Meer]
Wind variable 2kt
Zicht >10km
Weer -
Wolken Clouds and Visibility OK
Luchtdruk 1024
Wijzigen No Significant change. Runway 22: Clear and dry, , friction coefficient 0.70.
Ruw UACC 181530Z VRB01MPS CAVOK 05/01 Q1024 R22/0///70 NOSIG RMK QFE736/0982

VFR

6°C / -1°C

[Meer]
Wind 190º variable 160º to 220º 4kt
Zicht >10km
Weer -
Wolken Clouds and Visibility OK
Luchtdruk 1024
Wijzigen No Significant change. Runway 22: Clear and dry, , friction coefficient 0.70.
Ruw UACC 181500Z 19002MPS 160V220 CAVOK 06/M01 Q1024 R22/0///70 NOSIG RMK QFE736/0982

VFR

6°C / -1°C

[Meer]
Wind 170º 6kt
Zicht >10km
Weer -
Wolken Clouds and Visibility OK
Luchtdruk 1024
Wijzigen No Significant change. Runway 22: Clear and dry, , friction coefficient 0.70.
Ruw UACC 181430Z 17003MPS CAVOK 06/M01 Q1024 R22/0///70 NOSIG RMK QFE736/0982

VFR

6°C / 0°C

[Meer]
Wind 140º 6kt
Zicht >10km
Weer -
Wolken Clouds and Visibility OK
Luchtdruk 1024
Wijzigen No Significant change. Runway 22: Clear and dry, , friction coefficient 0.70.
Ruw UACC 181400Z 14003MPS CAVOK 06/M00 Q1024 R22/0///70 NOSIG RMK QFE736/0982

VFR

9°C / -1°C

[Meer]
Wind 140º variable 110º to 180º 4kt
Zicht >10km
Weer -
Wolken Clouds and Visibility OK
Luchtdruk 1024
Wijzigen No Significant change. Runway 22: Clear and dry, , friction coefficient 0.70.
Ruw UACC 181330Z 14002MPS 110V180 CAVOK 09/M01 Q1024 R22/0///70 NOSIG RMK QFE736/0982

VFR

8°C / -1°C

[Meer]
Wind 160º variable 140º to 200º 4kt
Zicht >10km
Weer -
Wolken Clouds and Visibility OK
Luchtdruk 1024
Wijzigen No Significant change. Runway 22: Clear and dry, , friction coefficient 0.70.
Ruw UACC 181300Z 16002MPS 140V200 CAVOK 08/M01 Q1024 R22/0///70 NOSIG RMK QFE736/0982

VFR

11°C / -1°C

[Meer]
Wind variable 0kt
Zicht >10km
Weer -
Wolken Clouds and Visibility OK
Luchtdruk 1024
Wijzigen No Significant change. Runway 22: Clear and dry, , friction coefficient 0.70.
Ruw UACC 181230Z 00000MPS CAVOK 11/M01 Q1024 R22/0///70 NOSIG RMK QFE736/0982

VFR

12°C / -2°C

[Meer]
Wind 160º variable 120º to 190º 4kt
Zicht >10km
Weer -
Wolken Clouds and Visibility OK
Luchtdruk 1024
Wijzigen No Significant change. Runway 22: Clear and dry, , friction coefficient 0.70.
Ruw UACC 181200Z 16002MPS 120V190 CAVOK 12/M02 Q1024 R22/0///70 NOSIG RMK QFE736/0982

VFR

13°C / -1°C

[Meer]
Wind 150º 4kt
Zicht >10km
Weer -
Wolken Clouds and Visibility OK
Luchtdruk 1024
Wijzigen No Significant change. Runway 22: Clear and dry, , friction coefficient 0.70.
Ruw UACC 181130Z 15002MPS CAVOK 13/M01 Q1024 R22/0///70 NOSIG RMK QFE736/0982

VFR

14°C / -1°C

[Meer]
Wind 150º 4kt
Zicht >10km
Weer -
Wolken Clouds and Visibility OK
Luchtdruk 1024
Wijzigen No Significant change. Runway 22: Clear and dry, , friction coefficient 0.70.
Ruw UACC 181100Z 15002MPS CAVOK 14/M01 Q1024 R22/0///70 NOSIG RMK QFE736/0982

VFR

15°C / -2°C

[Meer]
Wind variable 2kt
Zicht >10km
Weer -
Wolken Clouds and Visibility OK
Luchtdruk 1024
Wijzigen No Significant change. Runway 22: Clear and dry, , friction coefficient 0.70.
Ruw UACC 181030Z VRB01MPS CAVOK 15/M02 Q1024 R22/0///70 NOSIG RMK QFE736/0982

VFR

16°C / -2°C

[Meer]
Wind 280º variable 220º to 340º 4kt
Zicht >10km
Weer -
Wolken Clouds and Visibility OK
Luchtdruk 1024
Wijzigen No Significant change. Runway 22: Clear and dry, , friction coefficient 0.70.
Ruw UACC 181000Z 28002MPS 220V340 CAVOK 16/M02 Q1024 R22/0///70 NOSIG RMK QFE736/0982

VFR

16°C / -2°C

[Meer]
Wind 220º variable 170º to 340º 4kt
Zicht >10km
Weer -
Wolken Clouds and Visibility OK
Luchtdruk 1024
Wijzigen No Significant change. Runway 22: Clear and dry, , friction coefficient 0.70.
Ruw UACC 180930Z 22002MPS 170V340 CAVOK 16/M02 Q1024 R22/0///70 NOSIG RMK QFE736/0982

VFR

16°C / -1°C

[Meer]
Wind 260º variable 220º to 290º 4kt
Zicht >10km
Weer -
Wolken Clouds and Visibility OK
Luchtdruk 1024
Wijzigen No Significant change. Runway 22: Clear and dry, , friction coefficient 0.70.
Ruw UACC 180900Z 26002MPS 220V290 CAVOK 16/M01 Q1024 R22/0///70 NOSIG RMK QFE737/0982

VFR

15°C / -1°C

[Meer]
Wind 280º 6kt
Zicht >10km
Weer -
Wolken Clouds and Visibility OK
Luchtdruk 1024
Wijzigen No Significant change. Runway 04: Clear and dry, , friction coefficient 0.70.
Ruw UACC 180830Z 28003MPS CAVOK 15/M01 Q1024 R04/0///70 NOSIG RMK QFE737/0982

VFR

15°C / -1°C

[Meer]
Wind 190º 4kt
Zicht >10km
Weer -
Wolken Clouds and Visibility OK
Luchtdruk 1025
Wijzigen No Significant change. Runway 22: Clear and dry, , friction coefficient 0.70.
Ruw UACC 180800Z 19002MPS CAVOK 15/M01 Q1025 R22/0///70 NOSIG RMK QFE737/0983

VFR

15°C / -1°C

[Meer]
Wind 220º variable 150º to 280º 4kt
Zicht >10km
Weer -
Wolken Clouds and Visibility OK
Luchtdruk 1025
Wijzigen No Significant change. Runway 22: Clear and dry, , friction coefficient 0.70.
Ruw UACC 180730Z 22002MPS 150V280 CAVOK 15/M01 Q1025 R22/0///70 NOSIG RMK QFE737/0983

VFR

14°C / 0°C

[Meer]
Wind 200º variable 170º to 250º 6kt
Zicht >10km
Weer -
Wolken Clouds and Visibility OK
Luchtdruk 1025
Wijzigen No Significant change. Runway 22: Clear and dry, , friction coefficient 0.70.
Ruw UACC 180700Z 20003MPS 170V250 CAVOK 14/M00 Q1025 R22/0///70 NOSIG RMK QFE737/0983

VFR

13°C / 0°C

[Meer]
Wind 230º variable 200º to 270º 6kt
Zicht >10km
Weer -
Wolken Clouds and Visibility OK
Luchtdruk 1025
Wijzigen No Significant change. Runway 22: Clear and dry, , friction coefficient 0.70.
Ruw UACC 180630Z 23003MPS 200V270 CAVOK 13/M00 Q1025 R22/0///70 NOSIG RMK QFE737/0983

VFR

12°C / -1°C

[Meer]
Wind 230º variable 190º to 270º 6kt
Zicht >10km
Weer -
Wolken Clouds and Visibility OK
Luchtdruk 1026
Wijzigen No Significant change. Runway 22: Clear and dry, , friction coefficient 0.70.
Ruw UACC 180600Z 23003MPS 190V270 CAVOK 12/M01 Q1026 R22/0///70 NOSIG RMK QFE738/0984

TAF voor 51.02°N 71.47°O (UACC)

From till


Maximum Temperature 16ºC on . Minimum Temperature -2ºC on .
From till Wind variable 4kt. Visibility 6000m. Scattered Clouds 10000ft.
Temporarly from till Visibility 3100m. Mist . Scattered Clouds 500ft.
Temporarly from till Visibility 305.775m. freezing Fog . Obscured Sky.
Becoming from till Wind variable 4kt. Visibility 3100m. Mist . Scattered Clouds 1100ft.
From till Wind 140º 10kt. Visibility 10km or more. Nil Significant Cloud.

Ruw: TAF UACC 181701Z 1818/1918 VRB02MPS 6000 SCT100 TX16/1909Z TNM02/1901Z TEMPO 1818/1821 3100 BR SCT005 BECMG 1821/1823 3100 BR SCT011 TEMPO 1821/1903 0300 FZFG VV002 FM190400 14005MPS CAVOK

Huidige satelliet- en regenbeelden voor 51.02°N 71.47°O

De locatiemarkering is geplaatst op 51.02°N 71.47°O. [Meer]

Het realtime satellietbeeld combineert zichtbaar licht overdag met infraroodstraling 's nachts. 's Nachts is het beeld niet donker, omdat infraroodstraling temperatuurverschillen kan waarnemen. Helaas zijn lage wolken en mist moeilijk te onderscheiden van grondtemperaturen en kunnen dus 's nachts bijna onzichtbaar zijn. Meteosat-satellietbeelden voor Europa worden elke 5 minuten in real time bijgewerkt. De beelden van GOES-16/GOES-17 (Noord- en Zuid-Amerika) en Himawari (Azië) worden om de 10 minuten bijgewerkt.

Copyright 2021 EUMETSAT / meteoblue. / Copyright 2021 meteoblue

Radar en neerslag nowcast voor 51.02°N 71.47°O

Motregen
Licht
Matig
Zwaar
Zeer zwaar
Hail

De locatiemarkering wordt geplaatst op 51.02°N 71.47°O. Deze animation toont de neerslag radar van het afgelopen uur, maar ook de 1h verwachting. Motregen of lichte sneeuwval kan onzichtbaar zijn voor de radar. De neerslagintensiteit wordt met kleuren gecodeerd, van lichtblauw tot oranje.